sensor_id;sensor_type;location;lat;lon;timestamp;temperature;humidity
6581;DHT22;3324;50.796;7.228;2022-10-22T00:01:37;13.80;99.90
6581;DHT22;3324;50.796;7.228;2022-10-22T00:04:03;13.70;99.90
6581;DHT22;3324;50.796;7.228;2022-10-22T00:06:29;13.80;99.90
6581;DHT22;3324;50.796;7.228;2022-10-22T00:08:55;13.80;99.90
6581;DHT22;3324;50.796;7.228;2022-10-22T00:11:20;13.80;99.90
6581;DHT22;3324;50.796;7.228;2022-10-22T00:13:46;13.80;99.90
6581;DHT22;3324;50.796;7.228;2022-10-22T00:16:12;13.70;99.90
6581;DHT22;3324;50.796;7.228;2022-10-22T00:18:38;13.80;99.90
6581;DHT22;3324;50.796;7.228;2022-10-22T00:21:05;13.80;99.90
6581;DHT22;3324;50.796;7.228;2022-10-22T00:23:32;13.80;99.90
6581;DHT22;3324;50.796;7.228;2022-10-22T00:25:57;13.80;99.90
6581;DHT22;3324;50.796;7.228;2022-10-22T00:28:23;13.80;99.90
6581;DHT22;3324;50.796;7.228;2022-10-22T00:30:56;13.90;99.90
6581;DHT22;3324;50.796;7.228;2022-10-22T00:33:22;13.90;99.90
6581;DHT22;3324;50.796;7.228;2022-10-22T00:35:47;13.90;99.90
6581;DHT22;3324;50.796;7.228;2022-10-22T00:38:13;13.90;99.90
6581;DHT22;3324;50.796;7.228;2022-10-22T00:40:39;13.80;99.90
6581;DHT22;3324;50.796;7.228;2022-10-22T00:43:04;13.80;99.90
6581;DHT22;3324;50.796;7.228;2022-10-22T00:45:30;13.90;99.90
6581;DHT22;3324;50.796;7.228;2022-10-22T00:50:35;13.90;99.90
6581;DHT22;3324;50.796;7.228;2022-10-22T00:53:03;13.90;99.90
6581;DHT22;3324;50.796;7.228;2022-10-22T00:55:31;13.90;99.90
6581;DHT22;3324;50.796;7.228;2022-10-22T00:57:58;13.90;99.90
6581;DHT22;3324;50.796;7.228;2022-10-22T01:00:24;13.80;99.90
6581;DHT22;3324;50.796;7.228;2022-10-22T01:02:51;13.90;99.90
6581;DHT22;3324;50.796;7.228;2022-10-22T01:05:18;14.00;99.90
6581;DHT22;3324;50.796;7.228;2022-10-22T01:07:47;14.10;99.90
6581;DHT22;3324;50.796;7.228;2022-10-22T01:13:47;14.20;99.90
6581;DHT22;3324;50.796;7.228;2022-10-22T01:21:59;14.20;99.90
6581;DHT22;3324;50.796;7.228;2022-10-22T01:30:16;14.10;99.90
6581;DHT22;3324;50.796;7.228;2022-10-22T01:32:47;14.00;99.90
6581;DHT22;3324;50.796;7.228;2022-10-22T01:35:18;14.00;99.90
6581;DHT22;3324;50.796;7.228;2022-10-22T01:37:51;14.00;99.90
6581;DHT22;3324;50.796;7.228;2022-10-22T01:40:19;13.90;99.90
6581;DHT22;3324;50.796;7.228;2022-10-22T01:42:59;13.90;99.90
6581;DHT22;3324;50.796;7.228;2022-10-22T01:45:27;13.90;99.90
6581;DHT22;3324;50.796;7.228;2022-10-22T01:50:31;13.90;99.90
6581;DHT22;3324;50.796;7.228;2022-10-22T02:04:15;14.00;99.90
6581;DHT22;3324;50.796;7.228;2022-10-22T02:06:43;14.00;99.90
6581;DHT22;3324;50.796;7.228;2022-10-22T02:09:13;14.00;99.90
6581;DHT22;3324;50.796;7.228;2022-10-22T02:11:40;14.00;99.90
6581;DHT22;3324;50.796;7.228;2022-10-22T02:14:08;14.00;99.90
6581;DHT22;3324;50.796;7.228;2022-10-22T02:16:43;13.90;99.90
6581;DHT22;3324;50.796;7.228;2022-10-22T02:19:21;13.90;99.90
6581;DHT22;3324;50.796;7.228;2022-10-22T02:21:48;14.00;99.90
6581;DHT22;3324;50.796;7.228;2022-10-22T02:24:14;14.00;99.90
6581;DHT22;3324;50.796;7.228;2022-10-22T02:27:19;14.00;99.90
6581;DHT22;3324;50.796;7.228;2022-10-22T02:29:54;14.00;99.90
6581;DHT22;3324;50.796;7.228;2022-10-22T02:32:25;14.00;99.90
6581;DHT22;3324;50.796;7.228;2022-10-22T02:34:54;14.00;99.90
6581;DHT22;3324;50.796;7.228;2022-10-22T02:37:21;14.00;99.90
6581;DHT22;3324;50.796;7.228;2022-10-22T02:39:50;14.10;99.90
6581;DHT22;3324;50.796;7.228;2022-10-22T02:42:15;14.10;99.90
6581;DHT22;3324;50.796;7.228;2022-10-22T02:44:42;14.20;99.90
6581;DHT22;3324;50.796;7.228;2022-10-22T02:47:08;14.10;99.90
6581;DHT22;3324;50.796;7.228;2022-10-22T02:49:34;14.20;99.90
6581;DHT22;3324;50.796;7.228;2022-10-22T02:52:00;14.10;99.90
6581;DHT22;3324;50.796;7.228;2022-10-22T02:54:25;14.10;99.90
6581;DHT22;3324;50.796;7.228;2022-10-22T02:56:51;14.20;99.90
6581;DHT22;3324;50.796;7.228;2022-10-22T02:59:16;14.10;99.90
6581;DHT22;3324;50.796;7.228;2022-10-22T03:01:42;14.10;99.90
6581;DHT22;3324;50.796;7.228;2022-10-22T03:04:07;14.10;99.90
6581;DHT22;3324;50.796;7.228;2022-10-22T03:06:33;14.10;99.90
6581;DHT22;3324;50.796;7.228;2022-10-22T03:08:59;14.10;99.90
6581;DHT22;3324;50.796;7.228;2022-10-22T03:11:24;14.10;99.90
6581;DHT22;3324;50.796;7.228;2022-10-22T03:13:50;14.00;99.90
6581;DHT22;3324;50.796;7.228;2022-10-22T03:16:16;14.00;99.90
6581;DHT22;3324;50.796;7.228;2022-10-22T03:18:41;14.10;99.90
6581;DHT22;3324;50.796;7.228;2022-10-22T03:21:53;14.00;99.90
6581;DHT22;3324;50.796;7.228;2022-10-22T03:24:03;14.00;99.90
6581;DHT22;3324;50.796;7.228;2022-10-22T03:26:30;14.10;99.90
6581;DHT22;3324;50.796;7.228;2022-10-22T03:28:56;14.10;99.90
6581;DHT22;3324;50.796;7.228;2022-10-22T03:31:22;14.10;99.90
6581;DHT22;3324;50.796;7.228;2022-10-22T03:33:48;14.10;99.90
6581;DHT22;3324;50.796;7.228;2022-10-22T03:36:13;14.10;99.90
6581;DHT22;3324;50.796;7.228;2022-10-22T03:38:39;14.10;99.90
6581;DHT22;3324;50.796;7.228;2022-10-22T03:41:05;14.20;99.90
6581;DHT22;3324;50.796;7.228;2022-10-22T03:43:33;14.20;99.90
6581;DHT22;3324;50.796;7.228;2022-10-22T03:45:59;14.20;99.90
6581;DHT22;3324;50.796;7.228;2022-10-22T03:48:25;14.10;99.90
6581;DHT22;3324;50.796;7.228;2022-10-22T03:50:50;14.10;99.90
6581;DHT22;3324;50.796;7.228;2022-10-22T03:53:16;14.10;99.90
6581;DHT22;3324;50.796;7.228;2022-10-22T03:55:41;14.10;99.90
6581;DHT22;3324;50.796;7.228;2022-10-22T03:58:07;14.10;99.90
6581;DHT22;3324;50.796;7.228;2022-10-22T04:00:34;14.10;99.90
6581;DHT22;3324;50.796;7.228;2022-10-22T04:03:00;14.10;99.90
6581;DHT22;3324;50.796;7.228;2022-10-22T04:05:25;14.10;99.90
6581;DHT22;3324;50.796;7.228;2022-10-22T04:07:51;14.10;99.90
6581;DHT22;3324;50.796;7.228;2022-10-22T04:10:17;14.10;99.90
6581;DHT22;3324;50.796;7.228;2022-10-22T04:12:42;14.10;99.90
6581;DHT22;3324;50.796;7.228;2022-10-22T04:15:11;14.10;99.90
6581;DHT22;3324;50.796;7.228;2022-10-22T04:17:36;14.10;99.90
6581;DHT22;3324;50.796;7.228;2022-10-22T04:20:03;14.20;99.90
6581;DHT22;3324;50.796;7.228;2022-10-22T04:22:29;14.20;99.90
6581;DHT22;3324;50.796;7.228;2022-10-22T04:24:57;14.30;99.90
6581;DHT22;3324;50.796;7.228;2022-10-22T04:27:22;14.30;99.90
6581;DHT22;3324;50.796;7.228;2022-10-22T04:29:48;14.20;99.90
6581;DHT22;3324;50.796;7.228;2022-10-22T04:32:13;14.20;99.90
6581;DHT22;3324;50.796;7.228;2022-10-22T04:34:39;14.30;99.90
6581;DHT22;3324;50.796;7.228;2022-10-22T04:37:04;14.30;99.90
6581;DHT22;3324;50.796;7.228;2022-10-22T04:39:30;14.30;99.90
6581;DHT22;3324;50.796;7.228;2022-10-22T04:41:56;14.20;99.90
6581;DHT22;3324;50.796;7.228;2022-10-22T04:44:21;14.20;99.90
6581;DHT22;3324;50.796;7.228;2022-10-22T04:46:47;14.20;99.90
6581;DHT22;3324;50.796;7.228;2022-10-22T04:49:12;14.20;99.90
6581;DHT22;3324;50.796;7.228;2022-10-22T04:51:39;14.20;99.90
6581;DHT22;3324;50.796;7.228;2022-10-22T04:54:04;14.20;99.90
6581;DHT22;3324;50.796;7.228;2022-10-22T04:56:31;14.20;99.90
6581;DHT22;3324;50.796;7.228;2022-10-22T04:59:00;14.20;99.90
6581;DHT22;3324;50.796;7.228;2022-10-22T05:01:36;14.10;99.90
6581;DHT22;3324;50.796;7.228;2022-10-22T05:04:04;14.10;99.90
6581;DHT22;3324;50.796;7.228;2022-10-22T05:06:31;14.10;99.90
6581;DHT22;3324;50.796;7.228;2022-10-22T05:08:59;14.00;99.90
6581;DHT22;3324;50.796;7.228;2022-10-22T05:11:27;14.00;99.90
6581;DHT22;3324;50.796;7.228;2022-10-22T05:13:57;14.10;99.90
6581;DHT22;3324;50.796;7.228;2022-10-22T05:16:23;14.00;99.90
6581;DHT22;3324;50.796;7.228;2022-10-22T05:18:49;14.00;99.90
6581;DHT22;3324;50.796;7.228;2022-10-22T05:21:18;14.00;99.90
6581;DHT22;3324;50.796;7.228;2022-10-22T05:23:45;14.00;99.90
6581;DHT22;3324;50.796;7.228;2022-10-22T05:26:12;13.90;99.90
6581;DHT22;3324;50.796;7.228;2022-10-22T05:28:38;14.00;99.90
6581;DHT22;3324;50.796;7.228;2022-10-22T05:31:04;14.00;99.90
6581;DHT22;3324;50.796;7.228;2022-10-22T05:33:31;13.90;99.90
6581;DHT22;3324;50.796;7.228;2022-10-22T05:35:58;14.00;99.90
6581;DHT22;3324;50.796;7.228;2022-10-22T05:38:23;14.00;99.90
6581;DHT22;3324;50.796;7.228;2022-10-22T05:41:02;14.00;99.90
6581;DHT22;3324;50.796;7.228;2022-10-22T05:43:28;14.00;99.90
6581;DHT22;3324;50.796;7.228;2022-10-22T05:45:55;14.00;99.90
6581;DHT22;3324;50.796;7.228;2022-10-22T05:48:20;14.00;99.90
6581;DHT22;3324;50.796;7.228;2022-10-22T05:50:46;14.00;99.90
6581;DHT22;3324;50.796;7.228;2022-10-22T05:53:16;14.00;99.90
6581;DHT22;3324;50.796;7.228;2022-10-22T05:55:41;14.00;99.90
6581;DHT22;3324;50.796;7.228;2022-10-22T05:58:09;14.00;99.90
6581;DHT22;3324;50.796;7.228;2022-10-22T06:00:35;14.00;99.90
6581;DHT22;3324;50.796;7.228;2022-10-22T06:03:00;14.00;99.90
6581;DHT22;3324;50.796;7.228;2022-10-22T06:05:26;14.00;99.90
6581;DHT22;3324;50.796;7.228;2022-10-22T06:07:51;14.00;99.90
6581;DHT22;3324;50.796;7.228;2022-10-22T06:10:19;14.00;99.90
6581;DHT22;3324;50.796;7.228;2022-10-22T06:12:46;13.90;99.90
6581;DHT22;3324;50.796;7.228;2022-10-22T06:15:14;13.90;99.90
6581;DHT22;3324;50.796;7.228;2022-10-22T06:17:40;13.80;99.90
6581;DHT22;3324;50.796;7.228;2022-10-22T06:20:06;14.00;99.90
6581;DHT22;3324;50.796;7.228;2022-10-22T06:22:32;13.90;99.90
6581;DHT22;3324;50.796;7.228;2022-10-22T06:24:57;13.90;99.90
6581;DHT22;3324;50.796;7.228;2022-10-22T06:27:23;14.00;99.90
6581;DHT22;3324;50.796;7.228;2022-10-22T06:29:49;14.00;99.90
6581;DHT22;3324;50.796;7.228;2022-10-22T06:32:14;14.00;99.90
6581;DHT22;3324;50.796;7.228;2022-10-22T06:34:40;14.00;99.90
6581;DHT22;3324;50.796;7.228;2022-10-22T06:37:06;14.00;99.90
6581;DHT22;3324;50.796;7.228;2022-10-22T06:39:31;14.00;99.90
6581;DHT22;3324;50.796;7.228;2022-10-22T06:41:57;14.00;99.90
6581;DHT22;3324;50.796;7.228;2022-10-22T06:44:22;14.00;99.90
6581;DHT22;3324;50.796;7.228;2022-10-22T06:46:49;14.10;99.90
6581;DHT22;3324;50.796;7.228;2022-10-22T06:49:16;14.00;99.90
6581;DHT22;3324;50.796;7.228;2022-10-22T06:51:43;14.10;99.90
6581;DHT22;3324;50.796;7.228;2022-10-22T06:54:09;14.10;99.90
6581;DHT22;3324;50.796;7.228;2022-10-22T06:56:34;14.10;99.90
6581;DHT22;3324;50.796;7.228;2022-10-22T06:59:00;14.10;99.90
6581;DHT22;3324;50.796;7.228;2022-10-22T07:01:28;14.10;99.90
6581;DHT22;3324;50.796;7.228;2022-10-22T07:03:54;14.10;99.90
6581;DHT22;3324;50.796;7.228;2022-10-22T07:06:21;14.20;99.90
6581;DHT22;3324;50.796;7.228;2022-10-22T07:08:47;14.20;99.90
6581;DHT22;3324;50.796;7.228;2022-10-22T07:11:24;14.20;99.90
6581;DHT22;3324;50.796;7.228;2022-10-22T07:13:52;14.20;99.90
6581;DHT22;3324;50.796;7.228;2022-10-22T07:16:18;14.20;99.90
6581;DHT22;3324;50.796;7.228;2022-10-22T07:18:45;14.20;99.90
6581;DHT22;3324;50.796;7.228;2022-10-22T07:21:12;14.30;99.90
6581;DHT22;3324;50.796;7.228;2022-10-22T07:23:38;14.30;99.90
6581;DHT22;3324;50.796;7.228;2022-10-22T07:26:04;14.30;99.90
6581;DHT22;3324;50.796;7.228;2022-10-22T07:28:36;14.40;99.90
6581;DHT22;3324;50.796;7.228;2022-10-22T07:31:04;14.40;99.90
6581;DHT22;3324;50.796;7.228;2022-10-22T07:33:30;14.40;99.90
6581;DHT22;3324;50.796;7.228;2022-10-22T07:36:01;14.50;99.90
6581;DHT22;3324;50.796;7.228;2022-10-22T07:38:27;14.50;99.90
6581;DHT22;3324;50.796;7.228;2022-10-22T07:40:53;14.50;99.90
6581;DHT22;3324;50.796;7.228;2022-10-22T07:43:18;14.60;99.90
6581;DHT22;3324;50.796;7.228;2022-10-22T07:45:44;14.60;99.90
6581;DHT22;3324;50.796;7.228;2022-10-22T07:48:10;14.70;99.90
6581;DHT22;3324;50.796;7.228;2022-10-22T07:50:36;14.80;99.90
6581;DHT22;3324;50.796;7.228;2022-10-22T07:53:02;14.80;99.90
6581;DHT22;3324;50.796;7.228;2022-10-22T07:55:27;14.80;99.90
6581;DHT22;3324;50.796;7.228;2022-10-22T07:57:53;14.80;99.90
6581;DHT22;3324;50.796;7.228;2022-10-22T08:00:18;14.90;99.90
6581;DHT22;3324;50.796;7.228;2022-10-22T08:02:44;15.00;99.90
6581;DHT22;3324;50.796;7.228;2022-10-22T08:05:10;15.10;99.90
6581;DHT22;3324;50.796;7.228;2022-10-22T08:07:38;15.10;99.90
6581;DHT22;3324;50.796;7.228;2022-10-22T08:10:04;15.20;99.90
6581;DHT22;3324;50.796;7.228;2022-10-22T08:12:30;15.20;99.90
6581;DHT22;3324;50.796;7.228;2022-10-22T08:14:55;15.50;99.90
6581;DHT22;3324;50.796;7.228;2022-10-22T08:17:21;15.80;99.90
6581;DHT22;3324;50.796;7.228;2022-10-22T08:19:47;15.90;99.90
6581;DHT22;3324;50.796;7.228;2022-10-22T08:22:12;16.00;99.90
6581;DHT22;3324;50.796;7.228;2022-10-22T08:24:38;16.10;99.90
6581;DHT22;3324;50.796;7.228;2022-10-22T08:27:03;16.20;99.90
6581;DHT22;3324;50.796;7.228;2022-10-22T08:29:29;16.40;99.90
6581;DHT22;3324;50.796;7.228;2022-10-22T08:31:54;16.50;99.90
6581;DHT22;3324;50.796;7.228;2022-10-22T08:34:20;16.60;99.90
6581;DHT22;3324;50.796;7.228;2022-10-22T08:36:46;16.60;99.90
6581;DHT22;3324;50.796;7.228;2022-10-22T08:39:12;16.60;99.90
6581;DHT22;3324;50.796;7.228;2022-10-22T08:41:51;16.60;99.90
6581;DHT22;3324;50.796;7.228;2022-10-22T08:49:39;16.90;99.90
6581;DHT22;3324;50.796;7.228;2022-10-22T08:52:10;16.90;99.90
6581;DHT22;3324;50.796;7.228;2022-10-22T09:00:10;16.80;99.90
6581;DHT22;3324;50.796;7.228;2022-10-22T09:07:42;16.80;99.90
6581;DHT22;3324;50.796;7.228;2022-10-22T09:10:10;16.80;99.90
6581;DHT22;3324;50.796;7.228;2022-10-22T09:12:37;16.90;99.90
6581;DHT22;3324;50.796;7.228;2022-10-22T09:15:03;16.90;99.90
6581;DHT22;3324;50.796;7.228;2022-10-22T09:17:49;16.90;99.90
6581;DHT22;3324;50.796;7.228;2022-10-22T09:26:13;16.90;99.90
6581;DHT22;3324;50.796;7.228;2022-10-22T09:28:41;16.90;99.90
6581;DHT22;3324;50.796;7.228;2022-10-22T09:31:11;16.80;99.90
6581;DHT22;3324;50.796;7.228;2022-10-22T09:33:38;16.90;99.90
6581;DHT22;3324;50.796;7.228;2022-10-22T09:36:04;16.80;99.90
6581;DHT22;3324;50.796;7.228;2022-10-22T09:38:51;16.90;99.90
6581;DHT22;3324;50.796;7.228;2022-10-22T09:41:19;16.90;99.90
6581;DHT22;3324;50.796;7.228;2022-10-22T09:43:48;16.90;99.90
6581;DHT22;3324;50.796;7.228;2022-10-22T09:46:18;17.00;99.90
6581;DHT22;3324;50.796;7.228;2022-10-22T09:49:04;17.00;99.90
6581;DHT22;3324;50.796;7.228;2022-10-22T09:54:39;17.00;99.90
6581;DHT22;3324;50.796;7.228;2022-10-22T09:59:37;16.90;99.90
6581;DHT22;3324;50.796;7.228;2022-10-22T10:04:35;17.00;99.90
6581;DHT22;3324;50.796;7.228;2022-10-22T10:07:25;17.00;99.90
6581;DHT22;3324;50.796;7.228;2022-10-22T10:09:53;17.00;99.90
6581;DHT22;3324;50.796;7.228;2022-10-22T10:15:28;17.10;99.90
6581;DHT22;3324;50.796;7.228;2022-10-22T10:20:57;17.20;99.90
6581;DHT22;3324;50.796;7.228;2022-10-22T10:23:35;17.20;99.90
6581;DHT22;3324;50.796;7.228;2022-10-22T10:26:12;17.30;99.90
6581;DHT22;3324;50.796;7.228;2022-10-22T10:45:21;18.20;99.90
6581;DHT22;3324;50.796;7.228;2022-10-22T10:48:21;18.40;99.90
6581;DHT22;3324;50.796;7.228;2022-10-22T10:51:05;18.40;99.90
6581;DHT22;3324;50.796;7.228;2022-10-22T10:53:46;18.30;99.90
6581;DHT22;3324;50.796;7.228;2022-10-22T10:56:43;18.30;99.90
6581;DHT22;3324;50.796;7.228;2022-10-22T11:02:26;18.10;99.90
6581;DHT22;3324;50.796;7.228;2022-10-22T11:10:38;18.10;99.90
6581;DHT22;3324;50.796;7.228;2022-10-22T11:13:16;18.10;99.90
6581;DHT22;3324;50.796;7.228;2022-10-22T11:15:49;18.10;99.90
6581;DHT22;3324;50.796;7.228;2022-10-22T11:18:25;18.00;99.90
6581;DHT22;3324;50.796;7.228;2022-10-22T11:23:37;17.90;99.90
6581;DHT22;3324;50.796;7.228;2022-10-22T11:26:09;17.90;99.90
6581;DHT22;3324;50.796;7.228;2022-10-22T11:28:46;18.00;99.90
6581;DHT22;3324;50.796;7.228;2022-10-22T11:31:16;18.10;99.90
6581;DHT22;3324;50.796;7.228;2022-10-22T11:33:52;18.10;99.90
6581;DHT22;3324;50.796;7.228;2022-10-22T11:36:22;18.10;99.90
6581;DHT22;3324;50.796;7.228;2022-10-22T11:38:50;18.10;99.90
6581;DHT22;3324;50.796;7.228;2022-10-22T11:41:18;18.10;99.90
6581;DHT22;3324;50.796;7.228;2022-10-22T11:49:02;18.20;99.90
6581;DHT22;3324;50.796;7.228;2022-10-22T11:51:46;18.30;99.90
6581;DHT22;3324;50.796;7.228;2022-10-22T12:05:34;18.40;99.90
6581;DHT22;3324;50.796;7.228;2022-10-22T12:11:05;18.20;99.90
6581;DHT22;3324;50.796;7.228;2022-10-22T12:19:11;18.00;99.90
6581;DHT22;3324;50.796;7.228;2022-10-22T12:21:41;17.90;99.90
6581;DHT22;3324;50.796;7.228;2022-10-22T12:24:12;17.90;99.90
6581;DHT22;3324;50.796;7.228;2022-10-22T12:26:39;17.80;99.90
6581;DHT22;3324;50.796;7.228;2022-10-22T12:29:13;17.90;99.90
6581;DHT22;3324;50.796;7.228;2022-10-22T12:31:41;17.90;99.90
6581;DHT22;3324;50.796;7.228;2022-10-22T12:34:13;17.90;99.90
6581;DHT22;3324;50.796;7.228;2022-10-22T12:36:39;18.00;99.90
6581;DHT22;3324;50.796;7.228;2022-10-22T12:39:14;18.10;99.90
6581;DHT22;3324;50.796;7.228;2022-10-22T12:41:40;18.10;99.90
6581;DHT22;3324;50.796;7.228;2022-10-22T12:44:06;18.10;99.90
6581;DHT22;3324;50.796;7.228;2022-10-22T12:46:33;18.20;99.90
6581;DHT22;3324;50.796;7.228;2022-10-22T12:49:02;18.30;99.90
6581;DHT22;3324;50.796;7.228;2022-10-22T12:51:29;18.40;99.90
6581;DHT22;3324;50.796;7.228;2022-10-22T12:53:57;18.70;99.90
6581;DHT22;3324;50.796;7.228;2022-10-22T12:56:27;18.70;99.90
6581;DHT22;3324;50.796;7.228;2022-10-22T12:59:00;18.90;99.90
6581;DHT22;3324;50.796;7.228;2022-10-22T13:01:31;19.00;99.90
6581;DHT22;3324;50.796;7.228;2022-10-22T13:07:02;19.20;99.90
6581;DHT22;3324;50.796;7.228;2022-10-22T13:12:04;19.30;99.90
6581;DHT22;3324;50.796;7.228;2022-10-22T13:14:32;19.40;99.90
6581;DHT22;3324;50.796;7.228;2022-10-22T13:19:59;19.70;99.90
6581;DHT22;3324;50.796;7.228;2022-10-22T13:22:40;19.80;99.90
6581;DHT22;3324;50.796;7.228;2022-10-22T13:27:49;19.80;99.90
6581;DHT22;3324;50.796;7.228;2022-10-22T13:30:28;19.80;99.90
6581;DHT22;3324;50.796;7.228;2022-10-22T13:33:05;19.50;99.90
6581;DHT22;3324;50.796;7.228;2022-10-22T13:35:34;19.30;99.90
6581;DHT22;3324;50.796;7.228;2022-10-22T13:38:00;19.20;99.90
6581;DHT22;3324;50.796;7.228;2022-10-22T13:40:26;19.10;99.90
6581;DHT22;3324;50.796;7.228;2022-10-22T13:42:52;19.20;99.90
6581;DHT22;3324;50.796;7.228;2022-10-22T13:45:18;19.30;99.90
6581;DHT22;3324;50.796;7.228;2022-10-22T13:47:49;19.50;99.90
6581;DHT22;3324;50.796;7.228;2022-10-22T13:50:17;19.60;99.90
6581;DHT22;3324;50.796;7.228;2022-10-22T13:52:49;19.80;99.90
6581;DHT22;3324;50.796;7.228;2022-10-22T13:55:23;19.70;99.90
6581;DHT22;3324;50.796;7.228;2022-10-22T13:57:51;19.70;99.90
6581;DHT22;3324;50.796;7.228;2022-10-22T14:00:18;19.70;99.90
6581;DHT22;3324;50.796;7.228;2022-10-22T14:02:47;19.80;99.90
6581;DHT22;3324;50.796;7.228;2022-10-22T14:05:14;19.70;99.90
6581;DHT22;3324;50.796;7.228;2022-10-22T14:07:40;19.60;99.90
6581;DHT22;3324;50.796;7.228;2022-10-22T14:10:22;19.50;99.90
6581;DHT22;3324;50.796;7.228;2022-10-22T14:12:49;19.60;99.90
6581;DHT22;3324;50.796;7.228;2022-10-22T14:15:17;19.50;99.90
6581;DHT22;3324;50.796;7.228;2022-10-22T14:17:46;19.40;99.90
6581;DHT22;3324;50.796;7.228;2022-10-22T14:20:22;19.30;99.90
6581;DHT22;3324;50.796;7.228;2022-10-22T14:22:49;19.30;99.90
6581;DHT22;3324;50.796;7.228;2022-10-22T14:25:16;19.30;99.90
6581;DHT22;3324;50.796;7.228;2022-10-22T14:27:43;19.20;99.90
6581;DHT22;3324;50.796;7.228;2022-10-22T14:30:13;19.20;99.90
6581;DHT22;3324;50.796;7.228;2022-10-22T14:32:39;19.20;99.90
6581;DHT22;3324;50.796;7.228;2022-10-22T14:35:05;19.40;99.90
6581;DHT22;3324;50.796;7.228;2022-10-22T14:37:31;19.50;99.90
6581;DHT22;3324;50.796;7.228;2022-10-22T14:39:56;19.40;99.90
6581;DHT22;3324;50.796;7.228;2022-10-22T14:42:27;19.20;99.90
6581;DHT22;3324;50.796;7.228;2022-10-22T14:44:52;19.10;99.90
6581;DHT22;3324;50.796;7.228;2022-10-22T14:47:18;19.00;99.90
6581;DHT22;3324;50.796;7.228;2022-10-22T14:49:44;18.90;99.90
6581;DHT22;3324;50.796;7.228;2022-10-22T14:52:09;19.00;99.90
6581;DHT22;3324;50.796;7.228;2022-10-22T14:54:35;19.10;99.90
6581;DHT22;3324;50.796;7.228;2022-10-22T14:57:02;19.00;99.90
6581;DHT22;3324;50.796;7.228;2022-10-22T14:59:27;19.00;99.90
6581;DHT22;3324;50.796;7.228;2022-10-22T15:01:53;18.90;99.90
6581;DHT22;3324;50.796;7.228;2022-10-22T15:04:19;18.90;99.90
6581;DHT22;3324;50.796;7.228;2022-10-22T15:06:44;18.80;99.90
6581;DHT22;3324;50.796;7.228;2022-10-22T15:09:10;18.90;99.90
6581;DHT22;3324;50.796;7.228;2022-10-22T15:11:35;18.80;99.90
6581;DHT22;3324;50.796;7.228;2022-10-22T15:14:01;18.70;99.90
6581;DHT22;3324;50.796;7.228;2022-10-22T15:16:27;18.70;99.90
6581;DHT22;3324;50.796;7.228;2022-10-22T15:18:52;18.70;99.90
6581;DHT22;3324;50.796;7.228;2022-10-22T15:21:20;18.70;99.90
6581;DHT22;3324;50.796;7.228;2022-10-22T15:23:47;18.60;99.90
6581;DHT22;3324;50.796;7.228;2022-10-22T15:26:13;18.50;99.90
6581;DHT22;3324;50.796;7.228;2022-10-22T15:28:39;18.40;99.90
6581;DHT22;3324;50.796;7.228;2022-10-22T15:31:06;18.30;99.90
6581;DHT22;3324;50.796;7.228;2022-10-22T15:33:32;18.20;99.90
6581;DHT22;3324;50.796;7.228;2022-10-22T15:36:11;18.10;99.90
6581;DHT22;3324;50.796;7.228;2022-10-22T15:38:37;18.10;99.90
6581;DHT22;3324;50.796;7.228;2022-10-22T15:41:04;18.00;99.90
6581;DHT22;3324;50.796;7.228;2022-10-22T15:43:30;18.00;99.90
6581;DHT22;3324;50.796;7.228;2022-10-22T15:46:16;17.90;99.90
6581;DHT22;3324;50.796;7.228;2022-10-22T15:48:43;17.90;99.90
6581;DHT22;3324;50.796;7.228;2022-10-22T15:51:14;17.90;99.90
6581;DHT22;3324;50.796;7.228;2022-10-22T15:53:40;17.90;99.90
6581;DHT22;3324;50.796;7.228;2022-10-22T15:56:07;17.90;99.90
6581;DHT22;3324;50.796;7.228;2022-10-22T15:58:33;17.80;99.90
6581;DHT22;3324;50.796;7.228;2022-10-22T16:01:12;17.80;99.90
6581;DHT22;3324;50.796;7.228;2022-10-22T16:03:39;17.70;99.90
6581;DHT22;3324;50.796;7.228;2022-10-22T16:06:06;17.70;99.90
6581;DHT22;3324;50.796;7.228;2022-10-22T16:08:32;17.60;99.90
6581;DHT22;3324;50.796;7.228;2022-10-22T16:10:58;17.60;99.90
6581;DHT22;3324;50.796;7.228;2022-10-22T16:13:24;17.50;99.90
6581;DHT22;3324;50.796;7.228;2022-10-22T16:15:51;17.50;99.90
6581;DHT22;3324;50.796;7.228;2022-10-22T16:18:18;17.50;99.90
6581;DHT22;3324;50.796;7.228;2022-10-22T16:20:43;17.40;99.90
6581;DHT22;3324;50.796;7.228;2022-10-22T16:23:09;17.40;99.90
6581;DHT22;3324;50.796;7.228;2022-10-22T16:25:41;17.40;99.90
6581;DHT22;3324;50.796;7.228;2022-10-22T16:28:08;17.40;99.90
6581;DHT22;3324;50.796;7.228;2022-10-22T16:30:35;17.30;99.90
6581;DHT22;3324;50.796;7.228;2022-10-22T16:33:02;17.30;99.90
6581;DHT22;3324;50.796;7.228;2022-10-22T16:35:28;17.30;99.90
6581;DHT22;3324;50.796;7.228;2022-10-22T16:37:54;17.20;99.90
6581;DHT22;3324;50.796;7.228;2022-10-22T16:40:20;17.30;99.90
6581;DHT22;3324;50.796;7.228;2022-10-22T16:42:45;17.20;99.90
6581;DHT22;3324;50.796;7.228;2022-10-22T16:45:11;17.10;99.90
6581;DHT22;3324;50.796;7.228;2022-10-22T16:47:36;17.00;99.90
6581;DHT22;3324;50.796;7.228;2022-10-22T16:50:04;17.00;99.90
6581;DHT22;3324;50.796;7.228;2022-10-22T16:52:29;17.00;99.90
6581;DHT22;3324;50.796;7.228;2022-10-22T16:54:55;17.00;99.90
6581;DHT22;3324;50.796;7.228;2022-10-22T16:57:22;17.00;99.90
6581;DHT22;3324;50.796;7.228;2022-10-22T16:59:48;17.00;99.90
6581;DHT22;3324;50.796;7.228;2022-10-22T17:02:14;16.90;99.90
6581;DHT22;3324;50.796;7.228;2022-10-22T17:04:39;16.90;99.90
6581;DHT22;3324;50.796;7.228;2022-10-22T17:07:05;16.90;99.90
6581;DHT22;3324;50.796;7.228;2022-10-22T17:09:31;16.90;99.90
6581;DHT22;3324;50.796;7.228;2022-10-22T17:11:56;16.80;99.90
6581;DHT22;3324;50.796;7.228;2022-10-22T17:14:22;16.70;99.90
6581;DHT22;3324;50.796;7.228;2022-10-22T17:16:48;16.60;99.90
6581;DHT22;3324;50.796;7.228;2022-10-22T17:19:18;16.60;99.90
6581;DHT22;3324;50.796;7.228;2022-10-22T17:21:45;16.60;99.90
6581;DHT22;3324;50.796;7.228;2022-10-22T17:24:10;16.60;99.90
6581;DHT22;3324;50.796;7.228;2022-10-22T17:26:36;16.50;99.90
6581;DHT22;3324;50.796;7.228;2022-10-22T17:29:02;16.40;99.90
6581;DHT22;3324;50.796;7.228;2022-10-22T17:31:30;16.40;99.90
6581;DHT22;3324;50.796;7.228;2022-10-22T17:33:57;16.40;99.90
6581;DHT22;3324;50.796;7.228;2022-10-22T17:36:25;16.40;99.90
6581;DHT22;3324;50.796;7.228;2022-10-22T17:38:57;16.30;99.90
6581;DHT22;3324;50.796;7.228;2022-10-22T17:41:30;16.30;99.90
6581;DHT22;3324;50.796;7.228;2022-10-22T17:43:57;16.30;99.90
6581;DHT22;3324;50.796;7.228;2022-10-22T17:46:27;16.30;99.90
6581;DHT22;3324;50.796;7.228;2022-10-22T17:48:58;16.10;99.90
6581;DHT22;3324;50.796;7.228;2022-10-22T17:51:25;16.10;99.90
6581;DHT22;3324;50.796;7.228;2022-10-22T17:53:52;16.00;99.90
6581;DHT22;3324;50.796;7.228;2022-10-22T17:56:20;16.00;99.90
6581;DHT22;3324;50.796;7.228;2022-10-22T17:58:46;15.90;99.90
6581;DHT22;3324;50.796;7.228;2022-10-22T18:01:23;15.90;99.90
6581;DHT22;3324;50.796;7.228;2022-10-22T18:03:50;15.90;99.90
6581;DHT22;3324;50.796;7.228;2022-10-22T18:06:16;15.80;99.90
6581;DHT22;3324;50.796;7.228;2022-10-22T18:08:42;15.70;99.90
6581;DHT22;3324;50.796;7.228;2022-10-22T18:11:13;15.60;99.90
6581;DHT22;3324;50.796;7.228;2022-10-22T18:13:40;15.70;99.90
6581;DHT22;3324;50.796;7.228;2022-10-22T18:16:06;15.60;99.90
6581;DHT22;3324;50.796;7.228;2022-10-22T18:18:33;15.60;99.90
6581;DHT22;3324;50.796;7.228;2022-10-22T18:20:59;15.60;99.90